createdAt,value
2023-02-22T00:04:07.590Z,97846.06
2023-02-22T00:09:30.405Z,97851.66
2023-02-22T00:14:51.292Z,97851.34
2023-02-22T00:20:14.291Z,97856.63
2023-02-22T00:25:35.561Z,97857.09
2023-02-22T00:30:56.462Z,97850.03
2023-02-22T00:36:17.590Z,97844.47
2023-02-22T00:41:38.349Z,97844.63
2023-02-22T00:46:59.108Z,97834.06
2023-02-22T00:52:20.353Z,97842.41
2023-02-22T00:57:41.307Z,97836.25
2023-02-22T01:03:02.334Z,97836.84
2023-02-22T01:08:25.262Z,97833.88
2023-02-22T01:13:46.495Z,97826.84
2023-02-22T01:19:07.352Z,97830.38
2023-02-22T01:24:28.210Z,97819.94
2023-02-22T01:29:50.159Z,97821.88
2023-02-22T01:35:14.278Z,97819.81
2023-02-22T01:40:42.085Z,97815.41
2023-02-22T01:46:21.142Z,97818.66
2023-02-22T01:51:47.986Z,97816.44
2023-02-22T01:57:27.597Z,97810.72
2023-02-22T02:02:51.602Z,97815.69
2023-02-22T02:08:36.283Z,97817.91
2023-02-22T02:13:57.520Z,97805.28
2023-02-22T02:19:32.128Z,97808.06
2023-02-22T02:25:08.488Z,97808.06
2023-02-22T02:30:54.264Z,97807.50
2023-02-22T02:36:42.951Z,97805.47
2023-02-22T02:42:05.397Z,97797.53
2023-02-22T02:47:31.486Z,97784.19
2023-02-22T02:52:53.786Z,97789.03
2023-02-22T02:58:23.828Z,97786.81
2023-02-22T03:04:20.477Z,97779.19
2023-02-22T03:09:54.893Z,97775.69
2023-02-22T03:15:33.029Z,97772.91
2023-02-22T03:21:00.490Z,97765.13
2023-02-22T03:26:24.696Z,97760.28
2023-02-22T03:31:53.420Z,97759.56
2023-02-22T03:37:18.713Z,97775.69
2023-02-22T03:42:43.377Z,97767.91
2023-02-22T03:48:12.520Z,97767.47
2023-02-22T03:53:33.739Z,97767.31
2023-02-22T03:58:54.536Z,97775.69
2023-02-22T04:04:16.464Z,97763.06
2023-02-22T04:09:38.154Z,97761.59
2023-02-22T04:14:59.589Z,97760.28
2023-02-22T04:20:20.424Z,97761.59
2023-02-22T04:25:47.021Z,97754.41
2023-02-22T04:31:11.036Z,97751.63
2023-02-22T04:36:32.690Z,97753.97
2023-02-22T04:41:54.699Z,97748.25
2023-02-22T04:47:15.448Z,97745.91
2023-02-22T04:52:36.435Z,97748.84
2023-02-22T04:57:57.585Z,97748.84
2023-02-22T05:03:18.761Z,97737.56
2023-02-22T05:08:39.622Z,97736.81
2023-02-22T05:14:00.401Z,97743.56
2023-02-22T05:19:21.251Z,97736.81
2023-02-22T05:24:42.059Z,97749.72
2023-02-22T05:30:03.784Z,97744.16
2023-02-22T05:35:24.841Z,97739.88
2023-02-22T05:40:46.050Z,97746.63
2023-02-22T05:46:11.200Z,97749.41
2023-02-22T05:51:33.622Z,97747.22
2023-02-22T05:56:54.753Z,97748.25
2023-02-22T06:02:16.105Z,97752.66
2023-02-22T06:07:37.727Z,97752.34
2023-02-22T06:12:59.019Z,97756.91
2023-02-22T06:18:20.178Z,97755.00
2023-02-22T06:23:41.511Z,97758.97
2023-02-22T06:29:02.561Z,97759.25
2023-02-22T06:34:23.410Z,97761.75
2023-02-22T06:39:44.468Z,97762.03
2023-02-22T06:45:05.768Z,97766.72
2023-02-22T06:50:29.013Z,97781.09
2023-02-22T06:55:49.788Z,97773.63
2023-02-22T07:01:10.737Z,97778.47
2023-02-22T07:06:31.437Z,97784.16
2023-02-22T07:11:52.335Z,97776.53
2023-02-22T07:17:13.113Z,97782.56
2023-02-22T07:22:33.854Z,97775.50
2023-02-22T07:27:54.639Z,97775.63
2023-02-22T07:33:15.570Z,97788.09
2023-02-22T07:38:36.384Z,97789.81
2023-02-22T07:43:57.082Z,97792.28
2023-02-22T07:49:17.972Z,97780.69
2023-02-22T07:54:39.086Z,97785.22
2023-02-22T08:00:00.158Z,97790.84
2023-02-22T08:05:21.866Z,97777.72
2023-02-22T08:10:42.930Z,97786.50
2023-02-22T08:16:03.798Z,97786.31
2023-02-22T08:21:24.872Z,97795.00
2023-02-22T08:26:46.414Z,97793.09
2023-02-22T08:32:07.551Z,97791.19
2023-02-22T08:37:29.095Z,97800.41
2023-02-22T08:42:50.235Z,97793.81
2023-02-22T08:48:11.501Z,97791.69
2023-02-22T08:53:32.941Z,97796.66
2023-02-22T08:58:54.173Z,97794.59
2023-02-22T09:04:15.423Z,97790.41
2023-02-22T09:09:36.673Z,97790.13
2023-02-22T09:14:57.723Z,97798.97
2023-02-22T09:20:19.869Z,97791.56
2023-02-22T09:25:41.210Z,97790.66
2023-02-22T09:31:02.663Z,97791.13
2023-02-22T09:36:26.116Z,97784.09
2023-02-22T09:42:09.666Z,97794.31
2023-02-22T09:47:40.394Z,97790.00
2023-02-22T09:53:29.986Z,97786.81
2023-02-22T09:58:54.970Z,97776.97
2023-02-22T10:04:30.493Z,97773.09
2023-02-22T10:09:51.559Z,97774.41
2023-02-22T10:15:26.575Z,97768.41
2023-02-22T10:21:13.300Z,97766.03
2023-02-22T10:26:41.139Z,97755.44
2023-02-22T10:32:04.513Z,97752.16
2023-02-22T10:37:33.037Z,97751.53
2023-02-22T10:42:53.652Z,97750.50
2023-02-22T10:48:18.589Z,97747.22
2023-02-22T10:53:39.370Z,97740.81
2023-02-22T10:59:07.451Z,97742.91
2023-02-22T11:04:28.443Z,97736.53
2023-02-22T11:09:54.070Z,97730.09
2023-02-22T11:15:18.934Z,97723.44
2023-02-22T11:20:39.849Z,97718.13
2023-02-22T11:26:14.356Z,97717.50
2023-02-22T11:31:35.037Z,97718.34
2023-02-22T11:36:56.657Z,97707.41
2023-02-22T11:42:23.282Z,97700.66
2023-02-22T11:47:53.258Z,97698.84
2023-02-22T11:53:22.134Z,97687.19
2023-02-22T11:59:34.543Z,97684.94
2023-02-22T12:05:08.319Z,97687.94
2023-02-22T12:10:55.503Z,97670.44
2023-02-22T12:16:51.774Z,97676.00
2023-02-22T12:22:21.480Z,97671.84
2023-02-22T12:27:45.893Z,97663.38
2023-02-22T12:33:14.905Z,97665.25
2023-02-22T12:38:37.712Z,97654.69
2023-02-22T12:44:18.203Z,97660.25
2023-02-22T12:49:49.709Z,97657.59
2023-02-22T12:55:23.313Z,97663.22
2023-02-22T13:01:07.055Z,97659.75
2023-02-22T13:07:13.259Z,97657.16
2023-02-22T13:13:21.550Z,97647.59
2023-02-22T13:19:04.397Z,97643.97
2023-02-22T13:24:33.253Z,97652.88
2023-02-22T13:29:58.976Z,97647.94
2023-02-22T13:35:41.701Z,97639.44
2023-02-22T13:41:08.719Z,97641.59
2023-02-22T13:46:54.975Z,97640.06
2023-02-22T13:52:17.960Z,97650.84
2023-02-22T13:57:48.442Z,97641.56
2023-02-22T14:03:17.097Z,97646.06
2023-02-22T14:08:39.373Z,97647.16
2023-02-22T14:14:10.186Z,97630.41
2023-02-22T14:19:31.314Z,97635.38
2023-02-22T14:24:52.518Z,97627.34
2023-02-22T14:30:30.849Z,97639.31
2023-02-22T14:35:52.717Z,97633.47
2023-02-22T14:41:14.991Z,97634.50
2023-02-22T14:46:36.320Z,97628.31
2023-02-22T14:52:05.196Z,97634.66
2023-02-22T14:57:39.087Z,97627.75
2023-02-22T15:03:00.360Z,97630.94
2023-02-22T15:08:28.270Z,97629.97
2023-02-22T15:13:53.444Z,97629.50
2023-02-22T15:19:14.253Z,97628.78
2023-02-22T15:24:36.861Z,97626.84
2023-02-22T15:30:04.873Z,97628.31
2023-02-22T15:35:28.429Z,97628.31
2023-02-22T15:41:00.031Z,97616.81
2023-02-22T15:46:21.375Z,97617.56
2023-02-22T15:51:43.073Z,97618.50
2023-02-22T15:57:04.426Z,97615.81
2023-02-22T16:02:33.418Z,97620.16
2023-02-22T16:07:54.862Z,97609.97
2023-02-22T16:13:32.911Z,97614.19
2023-02-22T16:19:14.918Z,97610.97
2023-02-22T16:24:36.175Z,97615.56
2023-02-22T16:30:24.042Z,97615.53
2023-02-22T16:35:52.107Z,97619.00
2023-02-22T16:41:13.839Z,97620.53
2023-02-22T16:46:35.511Z,97625.25
2023-02-22T16:51:59.700Z,97624.13
2023-02-22T16:57:22.011Z,97614.75
2023-02-22T17:02:45.503Z,97624.91
2023-02-22T17:08:06.391Z,97624.19
2023-02-22T17:13:27.631Z,97631.41
2023-02-22T17:18:49.940Z,97636.13
2023-02-22T17:24:12.594Z,97638.81
2023-02-22T17:29:33.670Z,97638.50
2023-02-22T17:34:54.310Z,97641.78
2023-02-22T17:40:15.616Z,97646.22
2023-02-22T17:45:40.974Z,97639.00
2023-02-22T17:51:08.325Z,97632.63
2023-02-22T17:56:29.458Z,97639.66
2023-02-22T18:01:52.661Z,97633.47
2023-02-22T18:07:14.314Z,97626.44
2023-02-22T18:12:35.352Z,97633.06
2023-02-22T18:17:56.459Z,97620.91
2023-02-22T18:23:20.042Z,97627.41
2023-02-22T18:28:40.947Z,97629.78
2023-02-22T18:34:01.732Z,97625.28
2023-02-22T18:39:22.489Z,97620.59
2023-02-22T18:44:43.520Z,97624.31
2023-02-22T18:50:04.962Z,97625.38
2023-02-22T18:55:25.919Z,97615.59
2023-02-22T19:00:48.966Z,97615.59
2023-02-22T19:06:10.057Z,97621.06
2023-02-22T19:11:30.985Z,97619.75
2023-02-22T19:16:51.961Z,97617.22
2023-02-22T19:22:15.810Z,97612.72
2023-02-22T19:27:36.983Z,97610.81
2023-02-22T19:32:58.262Z,97607.28
2023-02-22T19:38:19.722Z,97613.00
2023-02-22T19:43:40.713Z,97608.63
2023-02-22T19:49:01.694Z,97607.28
2023-02-22T19:54:24.147Z,97611.81
2023-02-22T19:59:45.472Z,97602.91
2023-02-22T20:05:10.183Z,97605.53
2023-02-22T20:10:31.552Z,97605.84
2023-02-22T20:15:53.530Z,97604.22
2023-02-22T20:21:22.211Z,97613.72
2023-02-22T20:26:43.170Z,97610.81
2023-02-22T20:32:05.694Z,97615.19
2023-02-22T20:37:27.034Z,97607.88
2023-02-22T20:42:48.016Z,97608.28
2023-02-22T20:48:09.255Z,97610.94
2023-02-22T20:53:30.042Z,97598.31
2023-02-22T20:58:53.633Z,97598.88
2023-02-22T21:04:40.055Z,97602.41
2023-02-22T21:10:01.134Z,97588.03
2023-02-22T21:15:25.981Z,97598.59
2023-02-22T21:20:48.290Z,97594.50
2023-02-22T21:26:15.829Z,97596.97
2023-02-22T21:31:37.232Z,97590.09
2023-02-22T21:36:58.150Z,97591.56
2023-02-22T21:42:19.142Z,97595.50
2023-02-22T21:47:40.035Z,97593.59
2023-02-22T21:53:00.776Z,97583.03
2023-02-22T21:58:21.704Z,97589.34
2023-02-22T22:03:46.272Z,97582.47
2023-02-22T22:09:18.275Z,97578.53
2023-02-22T22:14:40.375Z,97583.91
2023-02-22T22:20:01.921Z,97590.25
2023-02-22T22:25:24.408Z,97580.84
2023-02-22T22:30:45.622Z,97577.06
2023-02-22T22:36:06.920Z,97567.41
2023-02-22T22:41:28.320Z,97574.28
2023-02-22T22:46:50.118Z,97576.88
2023-02-22T22:52:14.943Z,97573.38
2023-02-22T22:57:36.494Z,97575.84
2023-02-22T23:02:57.849Z,97571.47
2023-02-22T23:08:20.917Z,97567.06
2023-02-22T23:13:41.605Z,97573.19
2023-02-22T23:19:02.584Z,97561.06
2023-02-22T23:24:27.504Z,97564.97
2023-02-22T23:29:49.718Z,97560.31
2023-02-22T23:35:11.621Z,97554.56
2023-02-22T23:40:32.624Z,97551.66
2023-02-22T23:45:57.248Z,97548.00
2023-02-22T23:51:20.988Z,97550.19
2023-02-22T23:56:47.269Z,97552.66
